Time;durP1;ratioP1;P1;durP2;ratioP2;P2;SDS_P1;SDS_P2;PMS_P1;PMS_P2;Temp;Humidity;BMP_temperature;BMP_pressure;BME280_temperature;BME280_humidity;BME280_pressure;Samples;Min_cycle;Max_cycle;Signal;HPM_P1;HPM_P2
2022/12/27 00:00:55;;;;;;;;;;;20.70;50.40;;;;;;5062868;28;44253;-59
2022/12/27 00:03:22;;;;;;;;;;;20.70;50.40;;;;;;5062299;28;43757;-59
2022/12/27 00:05:50;;;;;;;;;;;20.70;50.40;;;;;;5062805;28;43428;-59
2022/12/27 00:08:18;;;;;;;;;;;20.70;50.40;;;;;;5062417;28;43579;-59
2022/12/27 00:10:45;;;;;;;;;;;20.70;50.40;;;;;;5082692;28;44971;-59
2022/12/27 00:13:12;;;;;;;;;;;20.70;50.40;;;;;;5082859;28;44115;-59
2022/12/27 00:15:40;;;;;;;;;;;20.70;50.40;;;;;;5070760;28;43301;-59
2022/12/27 00:18:07;;;;;;;;;;;20.70;50.40;;;;;;5062710;28;44148;-59
2022/12/27 00:20:34;;;;;;;;;;;20.60;50.40;;;;;;5062355;28;44968;-59
2022/12/27 00:23:02;;;;;;;;;;;20.70;50.40;;;;;;5062289;28;43507;-59
2022/12/27 00:25:29;;;;;;;;;;;20.60;50.40;;;;;;5062843;28;43472;-59
2022/12/27 00:27:56;;;;;;;;;;;20.60;50.40;;;;;;5062700;28;43470;-59
2022/12/27 00:30:24;;;;;;;;;;;20.60;50.40;;;;;;5061306;28;45056;-59
2022/12/27 00:32:51;;;;;;;;;;;20.60;50.40;;;;;;5062178;28;43545;-59
2022/12/27 00:35:18;;;;;;;;;;;20.60;50.40;;;;;;5062411;28;43426;-59
2022/12/27 00:37:46;;;;;;;;;;;20.60;50.40;;;;;;5062033;28;43435;-59
2022/12/27 00:40:13;;;;;;;;;;;20.60;50.40;;;;;;5077371;28;43960;-59
2022/12/27 00:42:40;;;;;;;;;;;20.60;50.40;;;;;;5069164;28;43468;-59
2022/12/27 00:45:08;;;;;;;;;;;20.60;50.40;;;;;;5082116;28;43486;-59
2022/12/27 00:47:35;;;;;;;;;;;20.50;50.50;;;;;;5082794;28;43431;-59
2022/12/27 00:50:03;;;;;;;;;;;20.50;50.50;;;;;;5081862;28;44701;-59
2022/12/27 00:52:30;;;;;;;;;;;20.50;50.60;;;;;;5081971;28;43540;-59
2022/12/27 00:54:58;;;;;;;;;;;20.50;50.60;;;;;;5082762;28;43483;-59
2022/12/27 00:57:25;;;;;;;;;;;20.50;50.70;;;;;;5082095;28;43593;-59
2022/12/27 00:59:52;;;;;;;;;;;20.50;50.60;;;;;;5081410;28;44642;-59
2022/12/27 01:02:20;;;;;;;;;;;20.50;50.70;;;;;;5082072;28;43823;-59
2022/12/27 01:04:47;;;;;;;;;;;20.50;50.70;;;;;;5081537;28;43432;-59
2022/12/27 01:07:14;;;;;;;;;;;20.40;50.60;;;;;;5082807;28;43439;-59
2022/12/27 01:09:42;;;;;;;;;;;20.40;50.60;;;;;;5064545;28;44658;-59
2022/12/27 01:12:09;;;;;;;;;;;20.40;50.70;;;;;;5074700;28;43480;-59
2022/12/27 01:14:36;;;;;;;;;;;20.40;50.70;;;;;;5061563;28;43424;-59
2022/12/27 01:17:04;;;;;;;;;;;20.40;50.70;;;;;;5062101;28;43609;-59
2022/12/27 01:19:33;;;;;;;;;;;20.40;50.60;;;;;;5061143;28;45021;-59
2022/12/27 01:22:01;;;;;;;;;;;20.40;50.60;;;;;;5062267;28;43774;-59
2022/12/27 01:24:28;;;;;;;;;;;20.40;50.60;;;;;;5061794;28;44083;-59
2022/12/27 01:26:55;;;;;;;;;;;20.30;50.60;;;;;;5061731;28;43551;-59
2022/12/27 01:29:24;;;;;;;;;;;20.30;50.60;;;;;;5061396;28;44799;-59
2022/12/27 01:31:51;;;;;;;;;;;20.30;50.60;;;;;;5061907;28;43408;-59
2022/12/27 01:34:18;;;;;;;;;;;20.30;50.60;;;;;;5061268;28;43556;-59
2022/12/27 01:36:46;;;;;;;;;;;20.30;50.60;;;;;;5061736;28;43584;-59
2022/12/27 01:39:13;;;;;;;;;;;20.30;50.60;;;;;;5060852;28;44706;-59
2022/12/27 01:44:41;;;;;;;;;;;20.30;50.60;;;;;;5065064;28;43432;-59
2022/12/27 01:47:11;;;;;;;;;;;20.20;50.60;;;;;;5065383;28;43428;-59
2022/12/27 01:49:44;;;;;;;;;;;20.20;50.60;;;;;;5064426;28;44116;-59
2022/12/27 01:52:13;;;;;;;;;;;20.20;50.70;;;;;;5064893;28;43584;-59
2022/12/27 01:54:41;;;;;;;;;;;20.20;50.60;;;;;;5064304;28;43369;-59
2022/12/27 01:57:10;;;;;;;;;;;20.10;50.50;;;;;;5065052;28;43518;-59
2022/12/27 01:59:37;;;;;;;;;;;20.10;50.50;;;;;;5063723;28;43734;-59
2022/12/27 02:02:05;;;;;;;;;;;20.20;50.50;;;;;;5063885;28;43541;-59
2022/12/27 02:04:33;;;;;;;;;;;20.10;50.60;;;;;;5064152;28;43429;-59
2022/12/27 02:07:00;;;;;;;;;;;20.10;50.50;;;;;;5079453;28;43470;-59
2022/12/27 02:09:28;;;;;;;;;;;20.10;50.50;;;;;;5063538;28;44187;-59
2022/12/27 02:11:56;;;;;;;;;;;20.10;50.50;;;;;;5078707;28;43912;-59
2022/12/27 02:14:26;;;;;;;;;;;20.10;50.50;;;;;;5082362;28;43403;-59
2022/12/27 02:16:59;;;;;;;;;;;20.10;50.50;;;;;;5064312;28;44060;-59
2022/12/27 02:19:26;;;;;;;;;;;20.00;50.40;;;;;;5064231;28;43996;-59
2022/12/27 02:22:21;;;;;;;;;;;20.10;50.50;;;;;;5063967;28;43810;-59
2022/12/27 02:25:06;;;;;;;;;;;20.00;50.50;;;;;;5064635;28;43515;-59
2022/12/27 02:27:48;;;;;;;;;;;20.00;50.50;;;;;;5064460;28;43443;-59
2022/12/27 02:30:16;;;;;;;;;;;20.00;50.50;;;;;;5063519;28;44705;-59
2022/12/27 02:32:43;;;;;;;;;;;20.00;50.50;;;;;;5064248;28;43414;-59
2022/12/27 02:35:10;;;;;;;;;;;20.00;50.50;;;;;;5063811;28;43534;-59
2022/12/27 02:37:40;;;;;;;;;;;20.00;50.60;;;;;;5064087;28;43423;-59
2022/12/27 02:54:22;;;;;;;;;;;19.90;50.60;;;;;;5068356;28;43494;-59
2022/12/27 02:57:08;;;;;;;;;;;19.90;50.60;;;;;;5084372;28;43460;-59
2022/12/27 03:05:43;;;;;;;;;;;19.80;50.60;;;;;;5083523;28;43727;-59
2022/12/27 03:08:16;;;;;;;;;;;19.80;50.60;;;;;;5077272;28;43503;-59
2022/12/27 03:16:41;;;;;;;;;;;19.80;50.60;;;;;;5063505;28;43965;-59
2022/12/27 03:25:26;;;;;;;;;;;19.80;50.60;;;;;;5063209;28;43445;-59
2022/12/27 03:27:43;;;;;;;;;;;19.70;50.60;;;;;;5063998;28;43780;-59
2022/12/27 03:33:13;;;;;;;;;;;19.70;50.60;;;;;;5063175;28;43463;-59
2022/12/27 03:35:42;;;;;;;;;;;19.70;50.60;;;;;;5063309;28;44649;-59
2022/12/27 03:38:11;;;;;;;;;;;19.70;50.60;;;;;;5063091;28;43855;-59
2022/12/27 03:43:09;;;;;;;;;;;19.60;50.60;;;;;;5062643;28;43487;-59
2022/12/27 03:43:32;;;;;;;;;;;19.60;50.60;;;;;;5070608;28;43492;-59
2022/12/27 03:46:34;;;;;;;;;;;19.60;50.60;;;;;;5063417;28;44831;-59
2022/12/27 03:49:23;;;;;;;;;;;19.60;50.70;;;;;;5063406;28;43507;-59
2022/12/27 03:51:53;;;;;;;;;;;19.60;50.70;;;;;;5062825;28;43497;-59
2022/12/27 03:54:26;;;;;;;;;;;19.60;50.70;;;;;;5063414;28;43529;-60
2022/12/27 03:56:58;;;;;;;;;;;19.60;50.70;;;;;;5063168;28;44693;-60
2022/12/27 03:59:26;;;;;;;;;;;19.60;50.70;;;;;;5062395;28;43494;-59
2022/12/27 04:01:53;;;;;;;;;;;19.60;50.70;;;;;;5062696;28;43387;-59
2022/12/27 04:04:21;;;;;;;;;;;19.60;50.60;;;;;;5062056;28;43559;-59
2022/12/27 04:06:48;;;;;;;;;;;19.60;50.70;;;;;;5063386;28;44721;-59
2022/12/27 04:36:56;;;;;;;;;;;19.40;50.90;;;;;;5072324;28;43367;-59
2022/12/27 04:39:23;;;;;;;;;;;19.40;50.90;;;;;;5068895;28;45000;-59
2022/12/27 04:56:01;;;;;;;;;;;19.30;50.80;;;;;;5063373;28;43554;-59
2022/12/27 04:58:28;;;;;;;;;;;19.30;50.80;;;;;;5061391;28;43452;-59
2022/12/27 05:03:45;;;;;;;;;;;19.30;50.80;;;;;;5061731;28;43447;-59
2022/12/27 05:06:13;;;;;;;;;;;19.30;50.90;;;;;;5062199;28;43424;-59
2022/12/27 05:14:13;;;;;;;;;;;19.20;50.90;;;;;;5062182;28;43803;-59
2022/12/27 05:16:42;;;;;;;;;;;19.20;50.90;;;;;;5064918;28;43437;-59
2022/12/27 05:19:11;;;;;;;;;;;19.20;50.90;;;;;;5065063;28;43653;-59
2022/12/27 05:21:39;;;;;;;;;;;19.20;50.90;;;;;;5065617;28;44674;-59
2022/12/27 05:26:54;;;;;;;;;;;19.20;50.90;;;;;;5065021;28;43401;-59
2022/12/27 05:29:22;;;;;;;;;;;19.10;50.80;;;;;;5065196;28;43504;-59
2022/12/27 05:31:49;;;;;;;;;;;19.10;50.80;;;;;;5064881;28;44675;-60
2022/12/27 05:34:16;;;;;;;;;;;19.20;50.90;;;;;;5065272;28;43491;-59
2022/12/27 05:36:44;;;;;;;;;;;19.10;50.80;;;;;;5064814;28;43449;-59
2022/12/27 05:39:11;;;;;;;;;;;19.10;50.90;;;;;;5064793;28;43455;-59
2022/12/27 05:41:38;;;;;;;;;;;19.10;50.80;;;;;;5065451;28;44763;-59
2022/12/27 05:44:06;;;;;;;;;;;19.10;50.90;;;;;;5064306;28;43774;-59
2022/12/27 05:46:34;;;;;;;;;;;19.10;50.80;;;;;;5080790;28;43418;-59
2022/12/27 05:49:02;;;;;;;;;;;19.10;50.80;;;;;;5085114;28;43628;-59
2022/12/27 05:51:30;;;;;;;;;;;19.10;50.90;;;;;;5076142;28;43872;-59
2022/12/27 05:53:57;;;;;;;;;;;19.00;50.80;;;;;;5084839;28;43448;-59
2022/12/27 05:56:24;;;;;;;;;;;19.00;50.90;;;;;;5085583;28;43479;-59
2022/12/27 05:58:52;;;;;;;;;;;19.00;50.80;;;;;;5085017;28;43548;-59
2022/12/27 06:01:20;;;;;;;;;;;19.00;50.90;;;;;;5084272;28;44965;-59
2022/12/27 06:03:47;;;;;;;;;;;19.00;50.90;;;;;;5089692;27;43508;-59
2022/12/27 06:06:14;;;;;;;;;;;19.00;50.90;;;;;;5085747;27;43531;-59
2022/12/27 06:08:42;;;;;;;;;;;19.00;50.80;;;;;;5080763;28;43648;-59
2022/12/27 06:11:12;;;;;;;;;;;19.00;50.80;;;;;;5077245;28;44743;-59
2022/12/27 06:13:40;;;;;;;;;;;19.00;50.80;;;;;;5068073;28;43798;-59
2022/12/27 06:16:09;;;;;;;;;;;19.00;50.80;;;;;;5084619;28;43458;-59
2022/12/27 06:18:37;;;;;;;;;;;19.00;50.80;;;;;;5084186;28;43550;-59
2022/12/27 06:21:09;;;;;;;;;;;19.00;50.70;;;;;;5084084;28;44766;-59
2022/12/27 06:23:37;;;;;;;;;;;18.90;50.70;;;;;;5084510;28;43672;-59
2022/12/27 06:26:06;;;;;;;;;;;18.90;50.70;;;;;;5084431;28;43407;-59
2022/12/27 06:28:33;;;;;;;;;;;18.90;50.70;;;;;;5082749;27;44035;-60
2022/12/27 06:31:01;;;;;;;;;;;18.90;50.90;;;;;;5085249;28;44585;-59
2022/12/27 06:33:29;;;;;;;;;;;18.90;50.80;;;;;;5083937;28;43420;-59
2022/12/27 06:35:56;;;;;;;;;;;18.90;50.80;;;;;;5084284;28;43382;-59
2022/12/27 06:38:25;;;;;;;;;;;18.90;50.90;;;;;;5083886;28;43434;-59
2022/12/27 06:40:52;;;;;;;;;;;18.90;50.80;;;;;;5084568;28;45045;-59
2022/12/27 06:43:19;;;;;;;;;;;18.90;50.80;;;;;;5083509;28;43460;-59
2022/12/27 06:45:54;;;;;;;;;;;18.90;50.80;;;;;;5084445;28;43418;-59
2022/12/27 06:48:21;;;;;;;;;;;18.90;50.80;;;;;;5071338;28;43406;-59
2022/12/27 06:50:49;;;;;;;;;;;18.90;50.80;;;;;;5083933;28;44663;-59
2022/12/27 06:53:16;;;;;;;;;;;18.80;50.80;;;;;;5084194;28;44902;-59
2022/12/27 06:55:44;;;;;;;;;;;18.80;50.80;;;;;;5084448;28;43397;-59
2022/12/27 06:58:12;;;;;;;;;;;18.80;50.80;;;;;;5083230;28;43471;-58
2022/12/27 07:00:40;;;;;;;;;;;18.80;50.80;;;;;;5083915;28;44785;-59
2022/12/27 07:03:08;;;;;;;;;;;18.80;50.80;;;;;;5079728;28;43550;-59
2022/12/27 07:05:35;;;;;;;;;;;18.80;50.90;;;;;;5079876;28;43495;-59
2022/12/27 07:08:03;;;;;;;;;;;18.80;51.00;;;;;;5082317;28;43428;-59
2022/12/27 07:10:31;;;;;;;;;;;18.70;51.00;;;;;;5083869;27;43730;-59
2022/12/27 07:12:58;;;;;;;;;;;18.70;51.00;;;;;;5088326;27;43801;-59
2022/12/27 07:15:25;;;;;;;;;;;18.70;51.10;;;;;;5075005;27;43989;-59
2022/12/27 07:17:52;;;;;;;;;;;18.70;51.20;;;;;;5082104;28;43503;-59
2022/12/27 07:20:21;;;;;;;;;;;18.70;51.80;;;;;;5074312;27;43807;-59
2022/12/27 07:22:48;;;;;;;;;;;18.70;51.20;;;;;;5087899;27;43744;-59
2022/12/27 07:25:15;;;;;;;;;;;18.60;51.20;;;;;;5074979;27;43385;-59
2022/12/27 07:27:43;;;;;;;;;;;18.60;51.10;;;;;;5068771;28;43498;-59
2022/12/27 07:30:10;;;;;;;;;;;18.70;51.20;;;;;;5047827;28;45190;-59
2022/12/27 07:32:37;;;;;;;;;;;18.70;51.20;;;;;;5086413;27;43538;-59
2022/12/27 07:35:05;;;;;;;;;;;18.60;51.20;;;;;;5077676;27;43452;-60
2022/12/27 07:37:32;;;;;;;;;;;18.60;51.20;;;;;;5076146;28;43558;-60
2022/12/27 07:40:00;;;;;;;;;;;18.60;51.20;;;;;;5066789;28;44696;-59
2022/12/27 07:42:28;;;;;;;;;;;18.60;51.20;;;;;;5076595;28;44018;-59
2022/12/27 07:44:55;;;;;;;;;;;18.60;51.20;;;;;;5079613;28;43494;-60
2022/12/27 07:47:23;;;;;;;;;;;18.60;51.20;;;;;;5083327;28;43546;-59
2022/12/27 07:49:51;;;;;;;;;;;18.60;51.20;;;;;;5082661;28;44694;-59
2022/12/27 07:52:18;;;;;;;;;;;18.60;51.10;;;;;;5083025;28;43402;-60
2022/12/27 07:54:46;;;;;;;;;;;18.60;51.10;;;;;;5082793;28;43436;-59
2022/12/27 07:57:13;;;;;;;;;;;18.60;51.10;;;;;;5082445;28;43588;-60
2022/12/27 07:59:40;;;;;;;;;;;18.60;51.10;;;;;;5082356;28;44798;-60
2022/12/27 08:02:08;;;;;;;;;;;18.60;51.00;;;;;;5083124;28;44206;-60
2022/12/27 08:04:37;;;;;;;;;;;18.60;51.00;;;;;;5081571;28;43627;-60
2022/12/27 08:07:17;;;;;;;;;;;18.60;51.10;;;;;;5082676;28;43498;-60
2022/12/27 08:09:45;;;;;;;;;;;18.60;51.00;;;;;;5083136;28;44933;-59
2022/12/27 08:12:13;;;;;;;;;;;18.60;51.20;;;;;;5084605;27;43549;-61
2022/12/27 08:14:40;;;;;;;;;;;18.50;51.30;;;;;;5079532;28;43420;-58
2022/12/27 08:17:21;;;;;;;;;;;18.50;51.50;;;;;;5082961;28;43467;-59
2022/12/27 08:19:50;;;;;;;;;;;18.50;51.50;;;;;;5078726;28;44971;-59
2022/12/27 08:22:17;;;;;;;;;;;18.50;51.30;;;;;;5071518;28;43815;-59
2022/12/27 08:24:44;;;;;;;;;;;18.60;51.20;;;;;;5078136;28;43399;-59
2022/12/27 08:27:12;;;;;;;;;;;18.60;51.10;;;;;;5083254;28;43568;-59
2022/12/27 08:29:39;;;;;;;;;;;18.60;51.00;;;;;;5082164;28;44811;-60
2022/12/27 08:32:06;;;;;;;;;;;18.60;50.90;;;;;;5064219;28;43368;-58
2022/12/27 08:34:33;;;;;;;;;;;18.70;51.20;;;;;;5081798;28;43392;-59
2022/12/27 08:37:01;;;;;;;;;;;18.60;51.10;;;;;;5072660;28;43491;-60
2022/12/27 08:39:28;;;;;;;;;;;18.70;51.20;;;;;;5077885;27;44704;-59
2022/12/27 08:41:56;;;;;;;;;;;18.70;51.10;;;;;;5081820;28;43832;-59
2022/12/27 08:44:23;;;;;;;;;;;18.80;51.00;;;;;;5083564;27;43414;-59
2022/12/27 08:46:51;;;;;;;;;;;18.80;50.90;;;;;;5080049;28;43546;-59
2022/12/27 08:49:18;;;;;;;;;;;18.80;50.80;;;;;;5080362;27;44992;-60
2022/12/27 08:51:46;;;;;;;;;;;18.90;50.90;;;;;;5082414;27;43468;-59
2022/12/27 08:54:13;;;;;;;;;;;18.90;50.80;;;;;;5081731;27;44000;-59
2022/12/27 08:56:40;;;;;;;;;;;19.10;50.80;;;;;;5077999;27;43495;-59
2022/12/27 08:59:08;;;;;;;;;;;19.10;50.60;;;;;;5080120;28;44849;-59
2022/12/27 09:01:37;;;;;;;;;;;19.20;50.60;;;;;;5080672;27;63616;-59
2022/12/27 09:04:04;;;;;;;;;;;19.30;50.50;;;;;;5078690;28;43434;-59
2022/12/27 09:06:32;;;;;;;;;;;19.30;50.30;;;;;;5081548;27;43522;-59
2022/12/27 09:09:00;;;;;;;;;;;19.40;50.30;;;;;;5080117;27;44021;-59
2022/12/27 09:11:29;;;;;;;;;;;19.40;50.30;;;;;;5079921;27;43527;-59
2022/12/27 09:13:57;;;;;;;;;;;19.50;50.20;;;;;;5081418;27;43515;-59
2022/12/27 09:16:27;;;;;;;;;;;19.60;50.20;;;;;;5074274;27;43511;-60
2022/12/27 09:19:48;;;;;;;;;;;19.60;50.30;;;;;;5168464;27;43443;-59
2022/12/27 09:22:16;;;;;;;;;;;19.80;50.00;;;;;;5160611;27;43779;-60
2022/12/27 09:24:44;;;;;;;;;;;19.90;49.50;;;;;;5159940;27;43903;-63
2022/12/27 09:27:11;;;;;;;;;;;20.00;49.50;;;;;;5161038;27;43505;-60
2022/12/27 09:29:39;;;;;;;;;;;20.10;49.20;;;;;;5160325;27;45066;-59
2022/12/27 09:32:14;;;;;;;;;;;20.20;49.80;;;;;;5160435;27;43394;-59
2022/12/27 09:34:41;;;;;;;;;;;20.30;48.90;;;;;;5157104;27;43492;-60
2022/12/27 09:37:09;;;;;;;;;;;20.30;48.70;;;;;;5159237;27;43630;-60
2022/12/27 09:39:39;;;;;;;;;;;20.40;48.80;;;;;;5159260;27;43862;-59
2022/12/27 09:42:26;;;;;;;;;;;20.50;48.80;;;;;;5160363;27;44105;-60
2022/12/27 09:45:13;;;;;;;;;;;20.50;48.30;;;;;;5156821;27;43516;-60
2022/12/27 09:48:01;;;;;;;;;;;20.50;48.00;;;;;;5157640;27;43501;-60
2022/12/27 09:50:31;;;;;;;;;;;20.50;47.90;;;;;;5116539;27;44993;-59
2022/12/27 09:53:25;;;;;;;;;;;20.50;47.90;;;;;;5152419;27;43886;-60
2022/12/27 09:55:54;;;;;;;;;;;20.50;47.90;;;;;;5153325;27;43509;-59
2022/12/27 09:58:34;;;;;;;;;;;20.50;48.20;;;;;;5153906;27;43536;-59
2022/12/27 10:01:06;;;;;;;;;;;20.60;48.60;;;;;;5153524;27;43788;-59
2022/12/27 10:03:33;;;;;;;;;;;20.60;48.40;;;;;;5156976;27;43534;-59
2022/12/27 10:06:19;;;;;;;;;;;20.60;48.00;;;;;;5152018;27;43417;-59
2022/12/27 10:08:46;;;;;;;;;;;20.60;48.00;;;;;;5157628;27;43506;-59
2022/12/27 10:11:34;;;;;;;;;;;20.70;48.00;;;;;;5160161;27;43862;-59
2022/12/27 10:14:18;;;;;;;;;;;20.70;48.00;;;;;;5155743;27;43480;-61
2022/12/27 10:16:50;;;;;;;;;;;20.70;48.30;;;;;;5159287;27;43470;-59
2022/12/27 10:19:18;;;;;;;;;;;20.80;48.10;;;;;;5157876;27;43534;-59
2022/12/27 10:22:02;;;;;;;;;;;20.80;47.90;;;;;;5159549;27;44853;-59
2022/12/27 10:24:33;;;;;;;;;;;20.80;47.70;;;;;;5156924;27;43508;-59
2022/12/27 10:27:01;;;;;;;;;;;20.90;47.80;;;;;;5159246;27;43339;-60
2022/12/27 10:29:31;;;;;;;;;;;20.90;48.10;;;;;;5154339;27;43531;-59
2022/12/27 10:31:58;;;;;;;;;;;20.90;47.80;;;;;;5144002;27;44614;-60
2022/12/27 10:34:26;;;;;;;;;;;20.90;48.10;;;;;;5142603;27;43894;-60
2022/12/27 10:36:53;;;;;;;;;;;21.00;47.80;;;;;;5142299;27;43456;-60
2022/12/27 10:39:25;;;;;;;;;;;21.00;47.80;;;;;;5140976;27;43638;-59
2022/12/27 10:42:02;;;;;;;;;;;21.00;47.80;;;;;;5144968;27;44713;-59
2022/12/27 10:44:29;;;;;;;;;;;21.10;47.90;;;;;;5144957;27;43477;-59
2022/12/27 10:46:58;;;;;;;;;;;21.10;47.90;;;;;;5145459;27;43503;-59
2022/12/27 10:49:32;;;;;;;;;;;21.10;48.00;;;;;;5143324;27;43490;-60
2022/12/27 10:52:16;;;;;;;;;;;21.10;48.10;;;;;;5144477;27;44765;-59
2022/12/27 10:54:53;;;;;;;;;;;21.10;47.90;;;;;;5142014;27;44107;-59
2022/12/27 10:57:28;;;;;;;;;;;21.20;47.70;;;;;;5142329;27;43499;-59
2022/12/27 11:00:21;;;;;;;;;;;21.20;47.70;;;;;;5143076;27;43527;-59
2022/12/27 11:02:53;;;;;;;;;;;21.20;48.00;;;;;;5138889;27;44012;-59
2022/12/27 11:05:24;;;;;;;;;;;21.20;47.70;;;;;;5144215;27;44084;-59
2022/12/27 11:07:52;;;;;;;;;;;21.20;47.80;;;;;;5144085;27;43420;-59
2022/12/27 11:10:22;;;;;;;;;;;21.30;47.90;;;;;;5145051;27;43516;-59
2022/12/27 11:12:56;;;;;;;;;;;21.30;47.70;;;;;;5145285;27;44691;-59
2022/12/27 11:15:25;;;;;;;;;;;21.30;47.80;;;;;;5144194;27;43459;-59
2022/12/27 11:17:53;;;;;;;;;;;21.30;47.60;;;;;;5144509;27;43447;-59
2022/12/27 11:20:21;;;;;;;;;;;21.30;47.70;;;;;;5145343;27;43523;-59
2022/12/27 11:22:48;;;;;;;;;;;21.30;47.70;;;;;;5143457;27;44060;-59
2022/12/27 11:25:16;;;;;;;;;;;21.40;47.80;;;;;;5143479;27;43507;-59
2022/12/27 11:27:48;;;;;;;;;;;21.40;47.80;;;;;;5145018;27;43453;-59
2022/12/27 11:30:47;;;;;;;;;;;21.40;47.80;;;;;;5143728;27;43543;-59
2022/12/27 11:33:21;;;;;;;;;;;21.40;47.60;;;;;;5081743;27;43903;-59
2022/12/27 11:35:53;;;;;;;;;;;21.40;47.70;;;;;;5143047;27;43476;-59
2022/12/27 11:38:25;;;;;;;;;;;21.40;47.80;;;;;;5144125;27;43490;-59
2022/12/27 11:41:04;;;;;;;;;;;21.40;47.70;;;;;;5143337;27;43504;-58
2022/12/27 11:43:41;;;;;;;;;;;21.40;48.50;;;;;;5130765;27;44015;-59
2022/12/27 11:46:17;;;;;;;;;;;21.40;47.80;;;;;;5140093;27;43491;-58
2022/12/27 11:48:48;;;;;;;;;;;21.40;47.90;;;;;;5143187;27;43440;-59
2022/12/27 11:51:18;;;;;;;;;;;21.40;48.00;;;;;;5145352;27;43595;-59
2022/12/27 11:54:04;;;;;;;;;;;21.40;48.10;;;;;;5143304;27;44104;-59
2022/12/27 11:56:37;;;;;;;;;;;21.40;48.10;;;;;;5141728;27;43790;-59
2022/12/27 11:59:10;;;;;;;;;;;21.40;48.10;;;;;;5141313;27;43475;-59
2022/12/27 12:01:47;;;;;;;;;;;21.40;48.10;;;;;;5144215;27;43438;-59
2022/12/27 12:04:33;;;;;;;;;;;21.40;48.20;;;;;;5140011;27;46220;-59
2022/12/27 12:07:15;;;;;;;;;;;21.30;48.10;;;;;;5142631;27;43447;-59
2022/12/27 12:09:57;;;;;;;;;;;21.30;48.00;;;;;;5142298;27;43517;-59
2022/12/27 12:12:25;;;;;;;;;;;21.30;48.20;;;;;;5139016;27;43596;-59
2022/12/27 12:14:58;;;;;;;;;;;21.30;48.20;;;;;;5139980;27;43785;-59
2022/12/27 12:17:44;;;;;;;;;;;21.30;48.40;;;;;;5135651;27;43463;-58
2022/12/27 12:20:31;;;;;;;;;;;21.30;48.30;;;;;;5136962;27;43502;-59
2022/12/27 12:23:04;;;;;;;;;;;21.30;48.50;;;;;;5133660;27;43655;-59
2022/12/27 12:25:35;;;;;;;;;;;21.30;48.40;;;;;;5142223;27;44871;-60
2022/12/27 12:28:20;;;;;;;;;;;21.30;48.30;;;;;;5129204;27;43459;-59
2022/12/27 12:31:26;;;;;;;;;;;21.20;48.30;;;;;;5135225;27;43435;-59
2022/12/27 12:33:54;;;;;;;;;;;21.20;48.40;;;;;;5137224;27;43472;-59
2022/12/27 12:36:34;;;;;;;;;;;21.10;48.30;;;;;;5138100;27;44616;-59
2022/12/27 12:39:16;;;;;;;;;;;21.10;48.40;;;;;;5139482;27;43525;-59
2022/12/27 12:42:10;;;;;;;;;;;21.10;48.50;;;;;;5144545;27;43442;-59
2022/12/27 12:44:42;;;;;;;;;;;21.10;48.60;;;;;;5129944;27;43598;-60
2022/12/27 12:47:28;;;;;;;;;;;21.10;48.70;;;;;;5132655;27;44823;-58
2022/12/27 12:50:00;;;;;;;;;;;21.10;49.00;;;;;;5129208;27;43596;-60
2022/12/27 12:52:53;;;;;;;;;;;21.00;48.80;;;;;;5140393;27;43385;-59
2022/12/27 12:55:26;;;;;;;;;;;21.00;48.80;;;;;;5101323;27;43460;-59
2022/12/27 12:58:08;;;;;;;;;;;21.00;49.50;;;;;;5129530;27;43776;-58
2022/12/27 13:00:54;;;;;;;;;;;21.00;48.90;;;;;;5138445;27;43506;-59
2022/12/27 13:03:33;;;;;;;;;;;20.90;48.90;;;;;;5140006;27;43361;-59
2022/12/27 13:06:10;;;;;;;;;;;20.90;49.00;;;;;;5127382;27;43579;-58
2022/12/27 13:08:55;;;;;;;;;;;20.80;49.00;;;;;;5142497;27;44724;-59
2022/12/27 13:11:42;;;;;;;;;;;20.80;49.00;;;;;;5143628;27;43421;-58
2022/12/27 13:14:28;;;;;;;;;;;20.80;49.10;;;;;;5130091;27;43474;-59
2022/12/27 13:17:14;;;;;;;;;;;20.80;49.10;;;;;;5140014;27;43484;-59
2022/12/27 13:19:52;;;;;;;;;;;20.80;49.20;;;;;;5137490;27;44090;-59
2022/12/27 13:22:20;;;;;;;;;;;20.70;49.10;;;;;;5143912;27;43537;-59
2022/12/27 13:24:59;;;;;;;;;;;20.80;49.20;;;;;;5143457;27;43451;-58
2022/12/27 13:27:50;;;;;;;;;;;20.70;49.30;;;;;;5136858;27;43963;-59
2022/12/27 13:30:22;;;;;;;;;;;20.70;49.30;;;;;;5135987;27;44123;-59
2022/12/27 13:33:08;;;;;;;;;;;20.70;49.30;;;;;;5143747;27;43552;-59
2022/12/27 13:35:38;;;;;;;;;;;20.70;49.30;;;;;;5143231;27;43377;-58
2022/12/27 13:38:11;;;;;;;;;;;20.70;49.30;;;;;;5143558;27;43513;-59
2022/12/27 13:40:44;;;;;;;;;;;20.70;49.30;;;;;;5143346;27;44769;-59
2022/12/27 13:43:18;;;;;;;;;;;20.70;49.40;;;;;;5143892;27;43400;-59
2022/12/27 13:45:48;;;;;;;;;;;20.60;49.20;;;;;;5136584;27;43412;-59
2022/12/27 13:48:32;;;;;;;;;;;20.60;49.40;;;;;;5138692;27;43369;-59
2022/12/27 13:51:10;;;;;;;;;;;20.60;49.40;;;;;;5125310;27;44019;-59
2022/12/27 13:54:01;;;;;;;;;;;20.70;49.40;;;;;;5138023;27;43506;-59
2022/12/27 13:56:52;;;;;;;;;;;20.70;49.50;;;;;;5136742;27;43500;-59
2022/12/27 13:59:36;;;;;;;;;;;20.70;49.40;;;;;;5130077;27;43461;-59
2022/12/27 14:02:19;;;;;;;;;;;20.70;49.50;;;;;;5138797;27;44922;-58
2022/12/27 14:05:05;;;;;;;;;;;20.70;49.50;;;;;;5136261;27;43322;-59
2022/12/27 14:07:45;;;;;;;;;;;20.70;49.40;;;;;;5145712;27;43407;-58
2022/12/27 14:10:30;;;;;;;;;;;20.70;49.30;;;;;;5144610;27;43497;-59
2022/12/27 14:13:01;;;;;;;;;;;20.70;49.50;;;;;;5133799;27;43773;-59
2022/12/27 14:15:38;;;;;;;;;;;20.70;49.50;;;;;;5137797;27;43742;-59
2022/12/27 14:18:22;;;;;;;;;;;20.70;49.50;;;;;;5139742;27;43464;-59
2022/12/27 14:21:14;;;;;;;;;;;20.70;49.40;;;;;;5138997;27;43417;-59
2022/12/27 14:24:00;;;;;;;;;;;20.70;49.60;;;;;;5136185;27;43873;-59
2022/12/27 14:26:27;;;;;;;;;;;20.70;49.40;;;;;;5143034;27;43511;-59
2022/12/27 14:29:10;;;;;;;;;;;20.70;49.40;;;;;;5144112;27;43510;-58
2022/12/27 14:31:37;;;;;;;;;;;20.60;49.40;;;;;;5140295;27;43491;-59
2022/12/27 14:34:15;;;;;;;;;;;20.70;49.40;;;;;;5140846;27;44135;-58
2022/12/27 14:36:48;;;;;;;;;;;20.60;49.40;;;;;;5139227;27;43455;-59
2022/12/27 14:39:35;;;;;;;;;;;20.60;49.40;;;;;;5141466;27;43533;-59
2022/12/27 14:42:21;;;;;;;;;;;20.60;49.50;;;;;;5138606;27;43564;-59
2022/12/27 14:44:57;;;;;;;;;;;20.60;49.40;;;;;;5144115;27;44832;-59
2022/12/27 14:47:33;;;;;;;;;;;20.50;49.60;;;;;;5141968;27;43741;-59
2022/12/27 14:50:12;;;;;;;;;;;20.50;49.60;;;;;;5140377;27;43514;-59
2022/12/27 14:52:45;;;;;;;;;;;20.60;49.60;;;;;;5131243;27;43467;-59
2022/12/27 14:55:23;;;;;;;;;;;20.50;49.60;;;;;;5142864;27;43987;-59
2022/12/27 14:58:02;;;;;;;;;;;20.60;49.60;;;;;;5140654;27;43456;-59
2022/12/27 15:00:48;;;;;;;;;;;20.60;49.60;;;;;;5142168;27;43505;-59
2022/12/27 15:03:18;;;;;;;;;;;20.50;49.50;;;;;;5130714;27;43559;-59
2022/12/27 15:05:50;;;;;;;;;;;20.60;49.50;;;;;;5139066;27;45019;-59
2022/12/27 15:08:24;;;;;;;;;;;20.60;49.60;;;;;;5145173;27;43902;-59
2022/12/27 15:10:51;;;;;;;;;;;20.50;49.60;;;;;;5145655;27;43407;-59
2022/12/27 15:13:19;;;;;;;;;;;20.50;49.50;;;;;;5143546;27;43598;-59
2022/12/27 15:15:46;;;;;;;;;;;20.50;49.60;;;;;;5134994;27;43843;-59
2022/12/27 15:18:32;;;;;;;;;;;20.50;49.70;;;;;;5143642;27;43498;-59
2022/12/27 15:21:08;;;;;;;;;;;20.50;49.70;;;;;;5135339;27;43362;-59
2022/12/27 15:23:46;;;;;;;;;;;20.50;49.70;;;;;;5140813;27;43396;-59
2022/12/27 15:26:20;;;;;;;;;;;20.50;49.70;;;;;;5141358;27;43793;-59
2022/12/27 15:28:59;;;;;;;;;;;20.40;49.70;;;;;;5143860;27;43440;-59
2022/12/27 15:31:46;;;;;;;;;;;20.40;49.90;;;;;;5144745;27;43946;-59
2022/12/27 15:34:22;;;;;;;;;;;20.40;50.50;;;;;;5141682;27;43496;-59
2022/12/27 15:36:50;;;;;;;;;;;20.40;49.80;;;;;;5143190;27;43789;-60
2022/12/27 15:39:32;;;;;;;;;;;20.40;49.80;;;;;;5143836;27;43886;-59
2022/12/27 15:42:18;;;;;;;;;;;20.40;49.90;;;;;;5143603;27;43417;-59
2022/12/27 15:45:09;;;;;;;;;;;20.40;49.80;;;;;;5142450;27;43450;-59
2022/12/27 15:47:39;;;;;;;;;;;20.40;49.90;;;;;;5098490;27;44700;-60
2022/12/27 15:50:27;;;;;;;;;;;20.40;49.90;;;;;;5142632;27;43417;-59
2022/12/27 15:53:00;;;;;;;;;;;20.40;49.90;;;;;;5142418;27;43455;-60
2022/12/27 15:55:46;;;;;;;;;;;20.40;49.90;;;;;;5144093;27;43432;-60
2022/12/27 15:58:20;;;;;;;;;;;20.40;49.90;;;;;;5139856;27;43783;-60
2022/12/27 16:01:06;;;;;;;;;;;20.40;49.90;;;;;;5140701;27;43398;-60
2022/12/27 16:03:37;;;;;;;;;;;20.40;50.00;;;;;;5143571;27;43383;-60
2022/12/27 16:06:08;;;;;;;;;;;20.40;50.00;;;;;;5143134;27;43515;-60
2022/12/27 16:08:37;;;;;;;;;;;20.40;50.00;;;;;;5142509;27;44778;-60
2022/12/27 16:11:09;;;;;;;;;;;20.30;50.00;;;;;;5143759;27;43895;-60
2022/12/27 16:13:40;;;;;;;;;;;20.40;50.10;;;;;;5142988;27;44049;-61
2022/12/27 16:16:32;;;;;;;;;;;20.30;50.10;;;;;;5141709;27;43490;-60
2022/12/27 16:19:07;;;;;;;;;;;20.30;50.20;;;;;;5124520;27;44820;-60